Tahsin Imamoglu — TCA3975 — position and weather

sailwx.info

Track history (hours):
 
Tides and Currents Weather Stations Pressure Air Temp Water Temp Dewpoint Dewpoint Depression Visibility Wind Speed Wind Dir Waves Ship Positions

Tahsin Imamoglu

Last reported at 2017-Sep-14 03:41 UTC. Time now 2017-Sep-22 01:16 UTC.
Position N 39°58' E 026°07'.

Length 89 m; draft 3.5 m.

Type: Cargo ship. MMSI: 271044425.

Date/timePositionNaut miles runAvg speedWind from/ knotsBaromVisibWave heightAir tempDewpointWater temp
2017-Sep-14 03:41N 39°58' E 026°07'  
2017-Sep-11 23:23N 41°16' E 031°25'0 0.0
2017-Sep-11 22:44N 41°16' E 031°25'0 0.0
2017-Sep-11 22:20N 41°16' E 031°25'0 0.0
2017-Sep-11 21:59N 41°16' E 031°25'0 0.0
2017-Sep-11 20:08N 41°16' E 031°25'0 0.0
2017-Sep-11 19:38N 41°16' E 031°25'0 0.0
2017-Sep-11 13:02N 41°16' E 031°25'0 0.0
2017-Sep-11 12:59N 41°16' E 031°25'0 0.1
2017-Sep-11 11:26N 41°16' E 031°24'1 0.3
2017-Sep-11 08:29N 41°16' E 031°23'0 0.1
2017-Sep-11 07:53N 41°16' E 031°23'0 0.0
2017-Sep-11 03:14N 41°16' E 031°23'0 0.0
2017-Sep-10 23:35N 41°16' E 031°23'0 0.2
2017-Sep-10 23:29N 41°16' E 031°23'0 0.1
2017-Sep-10 22:59N 41°16' E 031°23'0 0.0
2017-Sep-10 22:08N 41°16' E 031°23'0 0.0
2017-Sep-10 21:23N 41°16' E 031°23'0 0.0
2017-Sep-10 17:44N 41°16' E 031°23'0 0.0
2017-Sep-10 17:26N 41°16' E 031°23'0 0.1
2017-Sep-10 16:56N 41°16' E 031°23'0 0.0
2017-Sep-10 16:26N 41°16' E 031°23'0 0.0
2017-Sep-10 15:59N 41°16' E 031°23'0 0.0
2017-Sep-10 15:26N 41°16' E 031°23'0 0.1
2017-Sep-10 14:56N 41°16' E 031°23'0 0.0
2017-Sep-10 13:32N 41°16' E 031°23'0 0.0
2017-Sep-10 13:26N 41°16' E 031°23'0 0.0
2017-Sep-10 12:59N 41°16' E 031°23'0 0.0
2017-Sep-10 12:26N 41°16' E 031°23'0 0.0
2017-Sep-10 11:59N 41°16' E 031°23'0 0.0
2017-Sep-10 11:30N 41°16' E 031°23'109 7.5
2017-Sep-09 21:00N 40°59' E 028°60'3 5.1
2017-Sep-09 20:27N 40°57' E 029°01'4 8.9
2017-Sep-09 20:00N 40°54' E 029°05'4 8.6
2017-Sep-09 19:29N 40°53' E 029°11'1 1.3
2017-Sep-09 19:00N 40°53' E 029°11'0 0.0
2017-Sep-09 18:30N 40°53' E 029°11'0 0.0
2017-Sep-09 18:00N 40°53' E 029°11'0 0.0
2017-Sep-09 17:30N 40°53' E 029°11'0 0.0
2017-Sep-09 17:00N 40°53' E 029°11'0 0.1
2017-Sep-09 16:18N 40°53' E 029°11'1 4.2
2017-Sep-09 16:00N 40°51' E 029°11'5 9.4
2017-Sep-09 15:30N 40°47' E 029°14'4 8.9
2017-Sep-09 15:00N 40°45' E 029°19'5 8.9
2017-Sep-09 14:30N 40°45' E 029°25'1 0.1
2017-Sep-08 17:47N 40°44' E 029°24'4 8.8
2017-Sep-08 17:21N 40°43' E 029°19'3 8.6
2017-Sep-08 17:01N 40°43' E 029°15'4 8.7
2017-Sep-08 16:30N 40°43' E 029°09'5 9.3
2017-Sep-08 16:01N 40°43' E 029°03'146 7.8
2017-Sep-07 21:17N 39°50' E 026°05'305 6.7
2017-Sep-05 23:59N 36°04' E 030°24'32 7.7
2017-Sep-05 19:52N 36°03' E 031°04'4 8.3
2017-Sep-05 19:21N 36°02' E 031°09'3 8.3
2017-Sep-05 18:57N 36°02' E 031°13'4 8.5
2017-Sep-05 18:30N 36°01' E 031°18'4 8.5
2017-Sep-05 18:01N 36°01' E 031°23'4 8.6
2017-Sep-05 17:31N 36°01' E 031°28'4 8.6
2017-Sep-05 17:01N 36°01' E 031°34'4 8.6
2017-Sep-05 16:31N 36°00' E 031°39'4 8.7
2017-Sep-05 16:00N 36°00' E 031°44'4 8.8
2017-Sep-05 15:31N 36°00' E 031°50'4 8.9
2017-Sep-05 15:01N 36°00' E 031°55'4 9.0
2017-Sep-05 14:31N 36°00' E 032°01'4 8.8
2017-Sep-05 14:00N 36°00' E 032°06'4 8.6
2017-Sep-05 13:30N 36°01' E 032°12'5 8.5
2017-Sep-05 12:59N 36°01' E 032°17'4 8.5
2017-Sep-05 12:28N 36°01' E 032°23'4 8.7
2017-Sep-05 12:00N 36°01' E 032°28'4 8.8
2017-Sep-05 11:30N 36°00' E 032°33'4 8.6
2017-Sep-05 11:00N 36°00' E 032°38'5 8.4
2017-Sep-05 10:25N 36°00' E 032°44'  
Track history (hours):
 
Tides and Currents Weather Stations Pressure Air Temp Water Temp Dewpoint Dewpoint Depression Visibility Wind Speed Wind Dir Waves Ship Positions

Tahsin Imamoglu

Last reported at 2017-Sep-14 03:41 UTC. Time now 2017-Sep-22 01:16 UTC.
Position N 39°58' E 026°07'.

Length 89 m; draft 3.5 m.

Type: Cargo ship. MMSI: 271044425.

Date/timePositionNaut miles runAvg speedWind from/ knotsBaromVisibWave heightAir tempDewpointWater temp
2017-Sep-14 03:41N 39°58' E 026°07'  
2017-Sep-11 23:23N 41°16' E 031°25'0 0.0
2017-Sep-11 22:44N 41°16' E 031°25'0 0.0
2017-Sep-11 22:20N 41°16' E 031°25'0 0.0
2017-Sep-11 21:59N 41°16' E 031°25'0 0.0
2017-Sep-11 20:08N 41°16' E 031°25'0 0.0
2017-Sep-11 19:38N 41°16' E 031°25'0 0.0
2017-Sep-11 13:02N 41°16' E 031°25'0 0.0
2017-Sep-11 12:59N 41°16' E 031°25'0 0.1
2017-Sep-11 11:26N 41°16' E 031°24'1 0.3
2017-Sep-11 08:29N 41°16' E 031°23'0 0.1
2017-Sep-11 07:53N 41°16' E 031°23'0 0.0
2017-Sep-11 03:14N 41°16' E 031°23'0 0.0
2017-Sep-10 23:35N 41°16' E 031°23'0 0.2
2017-Sep-10 23:29N 41°16' E 031°23'0 0.1
2017-Sep-10 22:59N 41°16' E 031°23'0 0.0
2017-Sep-10 22:08N 41°16' E 031°23'0 0.0
2017-Sep-10 21:23N 41°16' E 031°23'0 0.0
2017-Sep-10 17:44N 41°16' E 031°23'0 0.0
2017-Sep-10 17:26N 41°16' E 031°23'0 0.1
2017-Sep-10 16:56N 41°16' E 031°23'0 0.0
2017-Sep-10 16:26N 41°16' E 031°23'0 0.0
2017-Sep-10 15:59N 41°16' E 031°23'0 0.0
2017-Sep-10 15:26N 41°16' E 031°23'0 0.1
2017-Sep-10 14:56N 41°16' E 031°23'0 0.0
2017-Sep-10 13:32N 41°16' E 031°23'0 0.0
2017-Sep-10 13:26N 41°16' E 031°23'0 0.0
2017-Sep-10 12:59N 41°16' E 031°23'0 0.0
2017-Sep-10 12:26N 41°16' E 031°23'0 0.0
2017-Sep-10 11:59N 41°16' E 031°23'0 0.0
2017-Sep-10 11:30N 41°16' E 031°23'109 7.5
2017-Sep-09 21:00N 40°59' E 028°60'3 5.1
2017-Sep-09 20:27N 40°57' E 029°01'4 8.9
2017-Sep-09 20:00N 40°54' E 029°05'4 8.6
2017-Sep-09 19:29N 40°53' E 029°11'1 1.3
2017-Sep-09 19:00N 40°53' E 029°11'0 0.0
2017-Sep-09 18:30N 40°53' E 029°11'0 0.0
2017-Sep-09 18:00N 40°53' E 029°11'0 0.0
2017-Sep-09 17:30N 40°53' E 029°11'0 0.0
2017-Sep-09 17:00N 40°53' E 029°11'0 0.1
2017-Sep-09 16:18N 40°53' E 029°11'1 4.2
2017-Sep-09 16:00N 40°51' E 029°11'5 9.4
2017-Sep-09 15:30N 40°47' E 029°14'4 8.9
2017-Sep-09 15:00N 40°45' E 029°19'5 8.9
2017-Sep-09 14:30N 40°45' E 029°25'1 0.1
2017-Sep-08 17:47N 40°44' E 029°24'4 8.8
2017-Sep-08 17:21N 40°43' E 029°19'3 8.6
2017-Sep-08 17:01N 40°43' E 029°15'4 8.7
2017-Sep-08 16:30N 40°43' E 029°09'5 9.3
2017-Sep-08 16:01N 40°43' E 029°03'146 7.8
2017-Sep-07 21:17N 39°50' E 026°05'305 6.7
2017-Sep-05 23:59N 36°04' E 030°24'32 7.7
2017-Sep-05 19:52N 36°03' E 031°04'4 8.3
2017-Sep-05 19:21N 36°02' E 031°09'3 8.3
2017-Sep-05 18:57N 36°02' E 031°13'4 8.5
2017-Sep-05 18:30N 36°01' E 031°18'4 8.5
2017-Sep-05 18:01N 36°01' E 031°23'4 8.6
2017-Sep-05 17:31N 36°01' E 031°28'4 8.6
2017-Sep-05 17:01N 36°01' E 031°34'4 8.6
2017-Sep-05 16:31N 36°00' E 031°39'4 8.7
2017-Sep-05 16:00N 36°00' E 031°44'4 8.8
2017-Sep-05 15:31N 36°00' E 031°50'4 8.9
2017-Sep-05 15:01N 36°00' E 031°55'4 9.0
2017-Sep-05 14:31N 36°00' E 032°01'4 8.8
2017-Sep-05 14:00N 36°00' E 032°06'4 8.6
2017-Sep-05 13:30N 36°01' E 032°12'5 8.5
2017-Sep-05 12:59N 36°01' E 032°17'4 8.5
2017-Sep-05 12:28N 36°01' E 032°23'4 8.7
2017-Sep-05 12:00N 36°01' E 032°28'4 8.8
2017-Sep-05 11:30N 36°00' E 032°33'4 8.6
2017-Sep-05 11:00N 36°00' E 032°38'5 8.4
2017-Sep-05 10:25N 36°00' E 032°44'  

Dump ship's entire track history